Time;durP1;ratioP1;P1;durP2;ratioP2;P2;SDS_P1;SDS_P2;PMS_P1;PMS_P2;Temp;Humidity;BMP_temperature;BMP_pressure;BME280_temperature;BME280_humidity;BME280_pressure;Samples;Min_cycle;Max_cycle;Signal;HPM_P1;HPM_P2
2022/05/17 00:01:22;;;;;;;;;;;;;;;5.59;79.27;99490.44;1714008;83;20152;-77
2022/05/17 00:03:52;;;;;;;;;;;;;;;5.56;79.77;99488.83;1752777;82;20117;-76
2022/05/17 00:06:20;;;;;;;;;;;;;;;5.51;79.75;99491.05;1714737;82;21126;-76
2022/05/17 00:08:55;;;;;;;;;;;;;;;5.44;79.85;99491.91;1729117;82;20425;-76
2022/05/17 00:11:24;;;;;;;;;;;;;;;5.38;80.49;99488.14;1720956;83;20116;-76
2022/05/17 00:14:07;;;;;;;;;;;;;;;5.33;80.94;99494.98;1720954;82;20112;-76
2022/05/17 00:16:26;;;;;;;;;;;;;;;5.27;81.19;99495.02;1750181;82;20141;-76
2022/05/17 00:18:54;;;;;;;;;;;;;;;5.22;81.33;99497.77;1701333;83;20108;-77
2022/05/17 00:21:29;;;;;;;;;;;;;;;5.17;81.57;99489.66;1751781;80;20133;-77
2022/05/17 00:23:57;;;;;;;;;;;;;;;5.14;81.86;99490.77;1701833;83;20155;-76
2022/05/17 00:26:35;;;;;;;;;;;;;;;5.12;82.11;99488.88;1752724;82;20165;-76
2022/05/17 00:29:02;;;;;;;;;;;;;;;5.07;82.10;99488.36;1734471;82;20112;-76
2022/05/17 00:31:32;;;;;;;;;;;;;;;5.04;82.26;99490.28;1722975;83;21169;-76
2022/05/17 00:34:04;;;;;;;;;;;;;;;4.98;82.09;99483.23;1733225;83;20082;-76
2022/05/17 00:36:31;;;;;;;;;;;;;;;4.92;82.14;99483.81;1751952;82;20122;-76
2022/05/17 00:39:05;;;;;;;;;;;;;;;4.87;82.45;99477.58;1733708;82;20095;-76
2022/05/17 00:41:32;;;;;;;;;;;;;;;4.83;82.63;99480.59;1747561;82;20095;-76
2022/05/17 00:46:58;;;;;;;;;;;;;;;4.70;82.89;99481.20;1714640;82;20435;-76
2022/05/17 00:49:29;;;;;;;;;;;;;;;4.63;82.93;99471.98;1752578;82;20118;-77
2022/05/17 00:52:00;;;;;;;;;;;;;;;4.58;83.17;99474.75;1714722;82;20607;-76
2022/05/17 00:54:28;;;;;;;;;;;;;;;4.56;83.36;99482.37;1753053;81;20121;-77
2022/05/17 00:57:10;;;;;;;;;;;;;;;4.51;83.63;99474.23;1714714;82;21101;-77
2022/05/17 00:59:40;;;;;;;;;;;;;;;4.48;83.91;99472.88;1752137;82;20117;-76
2022/05/17 01:02:09;;;;;;;;;;;;;;;4.46;84.06;99471.53;1725757;82;20134;-76
2022/05/17 01:04:37;;;;;;;;;;;;;;;4.43;84.47;99470.72;1719731;82;20087;-77
2022/05/17 01:07:12;;;;;;;;;;;;;;;4.42;85.01;99467.19;1687153;83;20099;-77
2022/05/17 01:09:42;;;;;;;;;;;;;;;4.39;85.23;99466.39;1721134;82;21114;-77
2022/05/17 01:12:30;;;;;;;;;;;;;;;4.36;85.17;99462.86;1722861;82;20429;-76
2022/05/17 01:14:57;;;;;;;;;;;;;;;4.33;85.22;99459.34;1718841;82;20083;-77
2022/05/17 01:17:29;;;;;;;;;;;;;;;4.28;85.09;99458.80;1723087;83;37785;-77
2022/05/17 01:20:01;;;;;;;;;;;;;;;4.24;85.26;99459.09;1745349;82;20083;-76
2022/05/17 01:22:27;;;;;;;;;;;;;;;4.22;85.60;99455.02;1744682;81;21108;-76
2022/05/17 01:25:02;;;;;;;;;;;;;;;4.20;85.77;99453.94;1740934;82;20095;-76
2022/05/17 01:27:33;;;;;;;;;;;;;;;4.16;85.94;99459.66;1723921;82;20087;-76
2022/05/17 01:30:00;;;;;;;;;;;;;;;4.15;86.12;99455.85;1745575;82;20119;-76
2022/05/17 01:32:26;;;;;;;;;;;;;;;4.11;86.11;99459.66;1745610;82;20091;-76
2022/05/17 01:34:56;;;;;;;;;;;;;;;4.08;86.33;99455.33;1745670;82;21845;-76
2022/05/17 01:37:22;;;;;;;;;;;;;;;4.06;86.48;99450.17;1745503;82;20403;-76
2022/05/17 01:39:52;;;;;;;;;;;;;;;4.04;86.60;99452.92;1745519;82;20115;-76
2022/05/17 01:42:18;;;;;;;;;;;;;;;4.03;86.75;99449.39;1744725;82;20118;-76
2022/05/17 01:44:51;;;;;;;;;;;;;;;4.02;86.75;99446.41;1723863;82;20099;-76
2022/05/17 01:47:30;;;;;;;;;;;;;;;3.98;86.90;99443.42;1723708;82;20672;-76
2022/05/17 01:49:55;;;;;;;;;;;;;;;3.97;86.98;99439.63;1743299;82;20091;-76
2022/05/17 01:52:24;;;;;;;;;;;;;;;3.97;87.19;99440.98;1745086;82;20119;-77
2022/05/17 01:54:50;;;;;;;;;;;;;;;3.97;87.30;99443.16;1741384;82;20114;-77
2022/05/17 01:57:23;;;;;;;;;;;;;;;3.97;87.45;99437.72;1745686;82;20119;-76
2022/05/17 01:59:50;;;;;;;;;;;;;;;4.01;87.52;99434.45;1720043;82;20083;-77
2022/05/17 02:02:22;;;;;;;;;;;;;;;4.07;87.66;99433.33;1723816;81;20087;-75
2022/05/17 02:04:57;;;;;;;;;;;;;;;4.14;87.61;99427.88;1719587;82;20108;-76
2022/05/17 02:07:26;;;;;;;;;;;;;;;4.23;87.09;99426.76;1747344;82;20483;-76
2022/05/17 02:09:53;;;;;;;;;;;;;;;4.29;86.87;99427.83;1747789;81;20082;-76
2022/05/17 02:12:25;;;;;;;;;;;;;;;4.36;86.78;99424.00;1747038;82;21238;-76
2022/05/17 02:14:58;;;;;;;;;;;;;;;4.45;86.58;99418.25;1746849;82;20122;-76
2022/05/17 02:17:35;;;;;;;;;;;;;;;4.57;85.96;99426.36;1747023;82;20111;-76
2022/05/17 02:20:16;;;;;;;;;;;;;;;4.65;85.34;99424.38;1748034;82;20094;-76
2022/05/17 02:22:33;;;;;;;;;;;;;;;4.71;85.03;99431.97;1741527;82;20099;-76
2022/05/17 02:25:05;;;;;;;;;;;;;;;4.76;84.78;99427.05;1726573;82;20675;-76
2022/05/17 02:27:32;;;;;;;;;;;;;;;4.78;84.44;99431.66;1747767;81;20415;-76
2022/05/17 02:30:00;;;;;;;;;;;;;;;4.80;84.29;99434.38;1748360;82;20119;-76
2022/05/17 02:32:28;;;;;;;;;;;;;;;4.81;84.44;99431.91;1747821;81;20115;-77
2022/05/17 02:34:58;;;;;;;;;;;;;;;4.82;84.47;99428.65;1747084;82;20114;-77
2022/05/17 02:37:30;;;;;;;;;;;;;;;4.84;84.43;99425.10;1743199;82;21133;-76
2022/05/17 02:40:07;;;;;;;;;;;;;;;4.89;84.19;99428.61;1750778;82;20118;-77
2022/05/17 02:42:37;;;;;;;;;;;;;;;5.00;83.91;99429.36;1746892;82;20087;-77
2022/05/17 02:45:07;;;;;;;;;;;;;;;5.09;83.57;99423.59;1726594;82;20083;-78
2022/05/17 02:47:41;;;;;;;;;;;;;;;5.14;83.41;99423.55;1747890;82;20437;-77
2022/05/17 02:50:09;;;;;;;;;;;;;;;5.18;83.29;99433.33;1747822;81;20119;-77
2022/05/17 02:52:41;;;;;;;;;;;;;;;5.25;82.79;99426.98;1748242;82;20406;-77
2022/05/17 02:55:06;;;;;;;;;;;;;;;5.40;82.05;99432.87;1747160;82;20075;-77
2022/05/17 02:57:34;;;;;;;;;;;;;;;5.53;81.44;99425.41;1747918;81;20465;-77
2022/05/17 03:00:05;;;;;;;;;;;;;;;5.65;80.73;99419.05;1747589;82;20150;-75
2022/05/17 03:02:36;;;;;;;;;;;;;;;5.79;79.88;99424.61;1747249;82;21174;-76
2022/05/17 03:05:13;;;;;;;;;;;;;;;5.91;79.00;99420.43;1725674;82;20091;-76
2022/05/17 03:07:41;;;;;;;;;;;;;;;6.10;78.07;99423.78;1723875;82;20095;-76
2022/05/17 03:10:11;;;;;;;;;;;;;;;6.23;77.18;99423.09;1745706;81;20458;-76
2022/05/17 03:12:45;;;;;;;;;;;;;;;6.38;76.37;99418.80;1744488;82;20091;-76
2022/05/17 03:15:18;;;;;;;;;;;;;;;6.52;75.39;99416.17;1723667;82;20103;-76
2022/05/17 03:17:45;;;;;;;;;;;;;;;6.68;74.22;99416.25;1745434;82;20145;-77
2022/05/17 03:20:17;;;;;;;;;;;;;;;6.82;73.46;99419.06;1745685;81;20178;-76
2022/05/17 03:22:45;;;;;;;;;;;;;;;6.93;72.69;99416.45;1745248;82;20107;-76
2022/05/17 03:25:13;;;;;;;;;;;;;;;7.04;72.09;99419.81;1741869;82;20419;-76
2022/05/17 03:27:47;;;;;;;;;;;;;;;7.13;71.40;99416.68;1723863;82;20131;-77
2022/05/17 03:30:15;;;;;;;;;;;;;;;7.20;70.85;99417.13;1745289;82;20119;-76
2022/05/17 03:32:47;;;;;;;;;;;;;;;7.27;70.40;99418.38;1723362;82;20418;-76
2022/05/17 03:35:19;;;;;;;;;;;;;;;7.37;69.74;99411.12;1723590;82;20402;-77
2022/05/17 03:37:48;;;;;;;;;;;;;;;7.45;69.13;99408.53;1724050;82;20147;-76
2022/05/17 03:40:18;;;;;;;;;;;;;;;7.55;68.66;99410.25;1745659;82;21139;-76
2022/05/17 03:42:54;;;;;;;;;;;;;;;7.63;68.28;99406.84;1744490;82;20446;-77
2022/05/17 03:45:23;;;;;;;;;;;;;;;7.72;67.99;99406.96;1745143;81;20095;-76
2022/05/17 03:47:53;;;;;;;;;;;;;;;7.80;67.44;99407.09;1744151;82;20083;-77
2022/05/17 03:50:24;;;;;;;;;;;;;;;7.89;67.34;99408.57;1745367;82;20118;-76
2022/05/17 03:52:55;;;;;;;;;;;;;;;7.99;66.83;99407.58;1744624;82;21160;-77
2022/05/17 03:55:22;;;;;;;;;;;;;;;8.07;66.37;99400.05;1744473;82;20095;-77
2022/05/17 03:57:51;;;;;;;;;;;;;;;8.15;66.08;99407.52;1745751;81;20083;-77
2022/05/17 04:00:24;;;;;;;;;;;;;;;8.25;65.67;99401.29;1745055;82;20456;-77
2022/05/17 04:02:56;;;;;;;;;;;;;;;8.39;64.84;99398.59;1723255;82;20120;-77
2022/05/17 04:05:22;;;;;;;;;;;;;;;8.51;64.41;99400.25;1745275;82;20595;-77
2022/05/17 04:07:52;;;;;;;;;;;;;;;8.60;64.03;99400.34;1724136;82;20162;-77
2022/05/17 04:10:20;;;;;;;;;;;;;;;8.71;63.52;99394.06;1749960;82;20095;-77
2022/05/17 04:12:54;;;;;;;;;;;;;;;8.83;63.08;99392.42;1724153;82;20118;-77
2022/05/17 04:15:22;;;;;;;;;;;;;;;8.97;63.21;99392.39;1749887;82;20075;-77
2022/05/17 04:17:54;;;;;;;;;;;;;;;9.12;62.51;99391.23;1723945;82;20098;-77
2022/05/17 04:20:26;;;;;;;;;;;;;;;9.27;62.59;99393.02;1746397;80;20075;-77
2022/05/17 04:22:55;;;;;;;;;;;;;;;9.43;62.73;99394.02;1749849;82;20122;-77
2022/05/17 04:25:24;;;;;;;;;;;;;;;9.59;62.13;99392.52;1724352;82;20162;-76
2022/05/17 04:27:51;;;;;;;;;;;;;;;9.76;61.44;99385.77;1749855;82;20087;-76
2022/05/17 04:30:20;;;;;;;;;;;;;;;9.94;60.04;99387.45;1749856;82;21085;-77
2022/05/17 04:33:09;;;;;;;;;;;;;;;10.12;59.54;99382.05;1749936;82;20114;-77
2022/05/17 04:35:26;;;;;;;;;;;;;;;10.31;58.36;99385.95;1745441;82;20098;-77
2022/05/17 04:37:55;;;;;;;;;;;;;;;10.50;57.94;99377.67;1749872;81;20102;-76
2022/05/17 04:40:41;;;;;;;;;;;;;;;10.71;58.46;99374.33;1749858;82;20122;-77
2022/05/17 04:42:59;;;;;;;;;;;;;;;10.90;57.72;99378.95;1745497;81;21263;-76
2022/05/17 04:45:32;;;;;;;;;;;;;;;11.10;56.81;99374.17;1723283;82;20111;-78
2022/05/17 04:48:02;;;;;;;;;;;;;;;11.35;55.14;99375.30;1748191;82;20430;-77
2022/05/17 04:50:33;;;;;;;;;;;;;;;11.59;53.96;99378.88;1749771;82;20422;-77
2022/05/17 04:53:01;;;;;;;;;;;;;;;11.84;53.62;99375.30;1749873;82;20426;-77
2022/05/17 04:55:28;;;;;;;;;;;;;;;12.06;52.33;99367.38;1749860;80;21137;-77
2022/05/17 04:57:56;;;;;;;;;;;;;;;12.29;52.46;99368.47;1748736;82;20082;-77
2022/05/17 05:00:26;;;;;;;;;;;;;;;12.54;51.84;99371.09;1749834;82;20095;-76
2022/05/17 05:02:55;;;;;;;;;;;;;;;12.74;50.24;99368.11;1746320;82;20114;-76
2022/05/17 05:05:29;;;;;;;;;;;;;;;12.91;49.22;99361.67;1722837;81;20135;-76
2022/05/17 05:08:02;;;;;;;;;;;;;;;13.08;48.28;99359.36;1735531;82;21162;-77
2022/05/17 05:10:33;;;;;;;;;;;;;;;13.23;47.77;99362.91;1733281;82;20095;-76
2022/05/17 05:13:01;;;;;;;;;;;;;;;13.36;47.12;99353.52;1713944;82;20100;-77
2022/05/17 05:15:32;;;;;;;;;;;;;;;13.49;46.02;99350.23;1734392;82;20487;-77
2022/05/17 05:17:58;;;;;;;;;;;;;;;13.64;44.29;99354.30;1735351;82;20096;-77
2022/05/17 05:20:32;;;;;;;;;;;;;;;13.79;43.62;99359.17;1735357;81;21237;-75
2022/05/17 05:23:05;;;;;;;;;;;;;;;14.04;42.92;99351.72;1724065;82;20111;-76
2022/05/17 05:25:32;;;;;;;;;;;;;;;14.31;42.86;99355.20;1734338;82;20095;-75
2022/05/17 05:27:58;;;;;;;;;;;;;;;14.60;42.98;99358.88;1732211;82;20119;-77
2022/05/17 05:30:29;;;;;;;;;;;;;;;14.79;40.48;99348.03;1735257;82;20439;-76
2022/05/17 05:32:57;;;;;;;;;;;;;;;14.86;40.54;99342.72;1730012;82;21142;-76
2022/05/17 05:35:34;;;;;;;;;;;;;;;14.87;40.30;99352.62;1714003;82;20099;-77
2022/05/17 05:38:02;;;;;;;;;;;;;;;14.88;39.71;99347.89;1734664;82;20083;-76
2022/05/17 05:40:31;;;;;;;;;;;;;;;14.89;40.28;99355.03;1734894;82;20098;-76
2022/05/17 05:43:01;;;;;;;;;;;;;;;14.94;39.98;99350.07;1733383;82;20084;-77
2022/05/17 05:45:32;;;;;;;;;;;;;;;14.99;41.47;99355.94;1708589;82;21265;-78
2022/05/17 05:47:59;;;;;;;;;;;;;;;15.09;41.21;99352.66;1722438;82;20166;-79
2022/05/17 05:50:27;;;;;;;;;;;;;;;15.26;40.01;99350.17;1718817;82;20086;-78
2022/05/17 05:53:11;;;;;;;;;;;;;;;15.33;37.75;99360.06;1685784;84;20121;-77
2022/05/17 05:55:40;;;;;;;;;;;;;;;15.36;39.38;99357.98;1705086;84;20464;-77
2022/05/17 05:58:12;;;;;;;;;;;;;;;15.52;39.95;99355.48;1713985;81;21748;-77
2022/05/17 06:00:42;;;;;;;;;;;;;;;15.78;40.52;99356.97;1713437;82;20084;-79
2022/05/17 06:03:24;;;;;;;;;;;;;;;16.00;38.87;99362.49;1714045;82;20415;-78
2022/05/17 06:05:41;;;;;;;;;;;;;;;16.09;38.30;99367.28;1731237;82;20096;-77
2022/05/17 06:08:15;;;;;;;;;;;;;;;16.06;36.65;99360.48;1722923;82;20083;-82
2022/05/17 06:10:43;;;;;;;;;;;;;;;16.04;37.58;99361.42;1719530;83;21846;-76
2022/05/17 06:13:17;;;;;;;;;;;;;;;16.07;37.02;99352.41;1719970;83;20097;-78
2022/05/17 06:15:45;;;;;;;;;;;;;;;16.10;35.67;99360.00;1731005;82;20167;-76
2022/05/17 06:18:15;;;;;;;;;;;;;;;16.07;37.88;99357.14;1724933;82;20152;-77
2022/05/17 06:20:52;;;;;;;;;;;;;;;16.12;37.91;99357.68;1719962;82;20077;-83
2022/05/17 06:23:21;;;;;;;;;;;;;;;16.23;36.53;99349.61;1748417;82;21916;-78
2022/05/17 06:25:48;;;;;;;;;;;;;;;16.23;36.78;99349.61;1747846;82;20083;-78
2022/05/17 06:28:21;;;;;;;;;;;;;;;16.20;35.60;99350.33;1747203;82;20149;-76
2022/05/17 06:30:51;;;;;;;;;;;;;;;16.17;36.85;99342.77;1721861;82;20119;-80
2022/05/17 06:33:24;;;;;;;;;;;;;;;16.23;35.27;99348.80;1721299;82;20123;-76
2022/05/17 06:35:54;;;;;;;;;;;;;;;16.18;33.47;99352.65;1712893;82;20112;-78
2022/05/17 06:38:22;;;;;;;;;;;;;;;16.07;33.29;99346.06;1747647;82;20119;-77
2022/05/17 06:40:55;;;;;;;;;;;;;;;16.09;33.63;99354.82;1748357;82;20091;-75
2022/05/17 06:43:22;;;;;;;;;;;;;;;16.20;34.40;99347.55;1747607;82;20451;-76
2022/05/17 06:45:49;;;;;;;;;;;;;;;16.15;34.50;99347.85;1748014;82;20083;-75
2022/05/17 06:48:21;;;;;;;;;;;;;;;16.10;34.74;99339.81;1721729;82;21151;-77
2022/05/17 06:50:58;;;;;;;;;;;;;;;16.22;34.83;99339.69;1747590;82;20183;-80
2022/05/17 06:53:28;;;;;;;;;;;;;;;16.37;33.74;99342.23;1747834;81;20139;-76
2022/05/17 06:56:07;;;;;;;;;;;;;;;16.48;35.49;99335.78;1722320;82;20095;-87
2022/05/17 06:58:28;;;;;;;;;;;;;;;16.55;33.10;99334.34;1741155;82;20075;-82
2022/05/17 07:00:59;;;;;;;;;;;;;;;16.44;33.30;99332.70;1739550;80;21067;-80
2022/05/17 07:03:33;;;;;;;;;;;;;;;16.39;35.35;99322.70;1747628;82;20201;-76
2022/05/17 07:06:04;;;;;;;;;;;;;;;16.50;33.80;99327.11;1728633;82;20429;-84
2022/05/17 07:08:30;;;;;;;;;;;;;;;16.59;35.24;99323.56;1710983;83;20091;-83
2022/05/17 07:13:48;;;;;;;;;;;;;;;16.86;33.66;99318.22;1728356;83;21113;-78
2022/05/17 07:16:23;;;;;;;;;;;;;;;16.85;33.06;99316.03;1735181;82;20079;-79
2022/05/17 07:18:48;;;;;;;;;;;;;;;16.79;33.01;99303.03;1727782;82;20110;-75
2022/05/17 07:21:16;;;;;;;;;;;;;;;16.84;33.15;99311.65;1728184;81;20169;-74
2022/05/17 07:23:42;;;;;;;;;;;;;;;16.90;34.29;99301.08;1743853;81;20186;-78
2022/05/17 07:26:09;;;;;;;;;;;;;;;16.98;32.38;99297.29;1706470;83;21111;-73
2022/05/17 07:28:43;;;;;;;;;;;;;;;16.92;32.64;99295.97;1719365;83;20136;-86
2022/05/17 07:31:12;;;;;;;;;;;;;;;16.92;33.16;99299.55;1687197;84;20114;-77
2022/05/17 07:33:43;;;;;;;;;;;;;;;16.97;33.42;99295.10;1719531;82;20128;-78
2022/05/17 07:36:15;;;;;;;;;;;;;;;17.04;33.39;99298.61;1730093;82;20197;-76
2022/05/17 07:38:45;;;;;;;;;;;;;;;17.11;33.28;99287.08;1697890;83;20450;-77
2022/05/17 07:41:11;;;;;;;;;;;;;;;17.23;34.52;99283.35;1694231;84;20109;-80
2022/05/17 07:43:41;;;;;;;;;;;;;;;17.42;33.10;99286.08;1694082;84;20126;-80
2022/05/17 07:46:15;;;;;;;;;;;;;;;17.50;32.50;99277.30;1693322;84;20412;-80
2022/05/17 07:48:45;;;;;;;;;;;;;;;17.55;32.47;99283.13;1688652;83;20099;-79
2022/05/17 07:51:21;;;;;;;;;;;;;;;17.57;32.25;99285.76;1715073;82;22241;-76
2022/05/17 07:53:49;;;;;;;;;;;;;;;17.60;32.85;99284.22;1706687;82;20112;-80
2022/05/17 07:56:15;;;;;;;;;;;;;;;17.79;32.18;99270.32;1733861;81;20179;-79
2022/05/17 07:58:42;;;;;;;;;;;;;;;17.94;31.26;99269.36;1732592;82;20199;-81
2022/05/17 08:01:08;;;;;;;;;;;;;;;18.02;32.10;99273.86;1726161;82;20169;-79
2022/05/17 08:03:35;;;;;;;;;;;;;;;18.03;30.73;99267.72;1700179;83;21826;-77
2022/05/17 08:06:05;;;;;;;;;;;;;;;17.90;31.92;99267.14;1728004;82;20100;-74
2022/05/17 08:08:35;;;;;;;;;;;;;;;17.91;32.70;99275.66;1731809;82;20145;-76
2022/05/17 08:11:08;;;;;;;;;;;;;;;17.99;32.05;99264.08;1733422;82;20115;-78
2022/05/17 08:13:33;;;;;;;;;;;;;;;18.10;30.27;99256.72;1733162;82;20094;-76
2022/05/17 08:16:01;;;;;;;;;;;;;;;18.14;30.56;99255.61;1733426;82;21167;-73
2022/05/17 08:18:31;;;;;;;;;;;;;;;18.21;30.76;99256.30;1733543;83;20430;-73
2022/05/17 08:20:57;;;;;;;;;;;;;;;18.35;30.75;99250.97;1733701;81;20082;-76
2022/05/17 08:23:28;;;;;;;;;;;;;;;18.62;29.76;99248.16;1732871;82;20095;-75
2022/05/17 08:28:42;;;;;;;;;;;;;;;19.13;28.79;99251.97;1732870;83;22271;-77
2022/05/17 08:31:16;;;;;;;;;;;;;;;19.07;28.04;99254.88;1732266;83;20182;-73
2022/05/17 08:33:44;;;;;;;;;;;;;;;18.84;28.67;99259.79;1732242;82;20233;-74
2022/05/17 08:36:12;;;;;;;;;;;;;;;18.44;28.64;99257.64;1729056;82;20085;-76
2022/05/17 08:38:52;;;;;;;;;;;;;;;18.45;29.01;99247.54;1715888;83;20142;-75
2022/05/17 08:41:26;;;;;;;;;;;;;;;18.63;28.66;99237.26;1702620;83;21158;-75
2022/05/17 08:44:05;;;;;;;;;;;;;;;18.83;29.37;99228.98;1704545;83;20085;-78
2022/05/17 08:46:56;;;;;;;;;;;;;;;18.89;28.02;99240.58;1704008;84;20128;-78
2022/05/17 08:49:34;;;;;;;;;;;;;;;19.04;28.31;99223.68;1704946;84;20177;-80
2022/05/17 08:52:17;;;;;;;;;;;;;;;19.24;27.46;99227.64;1704728;84;20109;-78
2022/05/17 08:55:03;;;;;;;;;;;;;;;19.46;27.54;99219.14;1704282;83;21802;-79
2022/05/17 08:57:43;;;;;;;;;;;;;;;19.53;27.60;99219.03;1703872;83;20097;-72
2022/05/17 09:00:16;;;;;;;;;;;;;;;19.33;27.35;99211.44;1719444;83;20115;-80
2022/05/17 09:02:51;;;;;;;;;;;;;;;19.35;28.12;99216.03;1715112;81;20137;-78
2022/05/17 09:05:42;;;;;;;;;;;;;;;19.41;28.61;99213.11;1747224;82;20141;-78
2022/05/17 09:08:20;;;;;;;;;;;;;;;19.54;27.55;99196.97;1713394;83;20092;-79
2022/05/17 09:10:56;;;;;;;;;;;;;;;19.39;26.94;99205.15;1713165;84;20160;-77
2022/05/17 09:13:28;;;;;;;;;;;;;;;19.31;27.73;99204.06;1750989;81;20117;-74
2022/05/17 09:15:57;;;;;;;;;;;;;;;19.53;27.61;99212.06;1700346;84;20171;-77
2022/05/17 09:18:24;;;;;;;;;;;;;;;19.68;27.94;99193.69;1743022;82;20169;-89
2022/05/17 09:20:52;;;;;;;;;;;;;;;19.74;27.81;99194.92;1713081;82;20123;-78
2022/05/17 09:23:20;;;;;;;;;;;;;;;19.63;28.20;99196.05;1721861;83;20160;-75
2022/05/17 09:26:04;;;;;;;;;;;;;;;19.41;29.67;99197.80;1752553;82;20137;-74
2022/05/17 09:28:50;;;;;;;;;;;;;;;19.52;29.23;99187.60;1733069;81;20168;-73
2022/05/17 09:31:28;;;;;;;;;;;;;;;19.69;28.49;99187.52;1752778;82;20472;-79
2022/05/17 09:34:06;;;;;;;;;;;;;;;20.04;27.97;99183.62;1714613;83;21505;-73
2022/05/17 09:36:33;;;;;;;;;;;;;;;20.42;27.77;99185.05;1714341;83;20084;-80
2022/05/17 09:39:00;;;;;;;;;;;;;;;20.64;27.91;99183.17;1729310;82;20110;-80
2022/05/17 09:41:30;;;;;;;;;;;;;;;20.59;26.31;99166.81;1702647;83;20096;-73
2022/05/17 09:44:10;;;;;;;;;;;;;;;20.37;27.56;99158.11;1724735;82;20128;-83
2022/05/17 09:46:49;;;;;;;;;;;;;;;20.11;27.95;99166.15;1694827;83;21067;-77
2022/05/17 09:52:32;;;;;;;;;;;;;;;20.57;27.27;99160.83;1739166;82;20095;-77
2022/05/17 09:55:07;;;;;;;;;;;;;;;20.87;27.12;99163.30;1717424;83;20104;-77
2022/05/17 09:57:39;;;;;;;;;;;;;;;21.21;26.34;99179.74;1712126;83;20085;-79
2022/05/17 10:00:12;;;;;;;;;;;;;;;21.31;25.77;99164.44;1717686;83;21256;-72
2022/05/17 10:02:51;;;;;;;;;;;;;;;21.32;25.90;99160.45;1718064;83;20085;-77
2022/05/17 10:05:25;;;;;;;;;;;;;;;21.54;25.09;99152.86;1712964;82;20114;-77
2022/05/17 10:08:03;;;;;;;;;;;;;;;21.65;25.84;99157.05;1747456;82;20087;-77
2022/05/17 10:10:35;;;;;;;;;;;;;;;21.65;25.47;99169.63;1747574;82;20096;-74
2022/05/17 10:13:10;;;;;;;;;;;;;;;21.74;25.14;99155.45;1748427;81;20434;-81
2022/05/17 10:15:38;;;;;;;;;;;;;;;21.92;25.92;99143.47;1745466;82;20138;-78
2022/05/17 10:18:28;;;;;;;;;;;;;;;22.34;26.58;99153.16;1747948;81;20107;-79
2022/05/17 10:20:54;;;;;;;;;;;;;;;22.62;24.38;99143.05;1745037;80;20089;-71
2022/05/17 10:23:28;;;;;;;;;;;;;;;22.50;24.83;99133.14;1741958;82;20091;-79
2022/05/17 10:26:03;;;;;;;;;;;;;;;22.11;24.98;99145.84;1725515;82;20234;-78
2022/05/17 10:28:58;;;;;;;;;;;;;;;22.00;25.74;99133.84;1747992;81;20151;-76
2022/05/17 10:31:32;;;;;;;;;;;;;;;22.34;25.72;99115.42;1746674;82;20434;-76
2022/05/17 10:34:06;;;;;;;;;;;;;;;22.50;24.28;99116.95;1748069;82;20107;-75
2022/05/17 10:36:37;;;;;;;;;;;;;;;22.00;24.37;99127.66;1747346;82;20114;-76
2022/05/17 10:39:09;;;;;;;;;;;;;;;21.32;25.76;99123.36;1740903;82;21261;-75
2022/05/17 10:41:41;;;;;;;;;;;;;;;20.66;26.64;99127.80;1732313;82;20127;-74
2022/05/17 10:44:19;;;;;;;;;;;;;;;20.58;27.55;99123.98;1726211;82;20103;-76
2022/05/17 10:46:48;;;;;;;;;;;;;;;20.77;26.68;99108.31;1746650;81;20176;-76
2022/05/17 10:49:28;;;;;;;;;;;;;;;21.02;26.64;99099.97;1745376;82;20095;-72
2022/05/17 10:52:02;;;;;;;;;;;;;;;20.86;26.20;99112.89;1745783;81;21121;-71
2022/05/17 10:54:56;;;;;;;;;;;;;;;20.34;27.36;99099.76;1746624;82;20430;-74
2022/05/17 10:57:42;;;;;;;;;;;;;;;20.06;27.85;99085.71;1719017;83;20201;-84
2022/05/17 11:00:18;;;;;;;;;;;;;;;20.19;27.92;99079.21;1712923;84;20095;-81
2022/05/17 11:03:21;;;;;;;;;;;;;;;20.71;29.11;99104.30;1712257;83;20127;-75
2022/05/17 11:06:08;;;;;;;;;;;;;;;21.13;27.29;99094.40;1741548;82;21146;-70
2022/05/17 11:08:39;;;;;;;;;;;;;;;21.22;25.87;99079.48;1720435;83;20168;-72
2022/05/17 11:11:43;;;;;;;;;;;;;;;20.99;26.70;99090.99;1719120;83;20467;-83
2022/05/17 11:14:45;;;;;;;;;;;;;;;20.78;26.99;99095.96;1719585;83;20143;-83
2022/05/17 11:17:34;;;;;;;;;;;;;;;20.79;26.84;99090.58;1717268;80;20190;-78
2022/05/17 11:20:28;;;;;;;;;;;;;;;21.05;27.44;99088.81;1715408;83;21159;-75
2022/05/17 11:23:24;;;;;;;;;;;;;;;21.59;27.50;99073.47;1748607;82;20496;-85
2022/05/17 11:26:05;;;;;;;;;;;;;;;21.95;24.84;99080.55;1709680;83;20139;-76
2022/05/17 11:28:52;;;;;;;;;;;;;;;22.21;25.31;99065.94;1722191;82;20140;-78
2022/05/17 11:31:26;;;;;;;;;;;;;;;22.46;25.20;99065.23;1743398;80;20162;-76
2022/05/17 11:34:15;;;;;;;;;;;;;;;22.45;24.22;99072.03;1707842;84;20250;-75
2022/05/17 11:36:47;;;;;;;;;;;;;;;22.16;24.30;99067.75;1680735;85;20128;-76
2022/05/17 11:39:41;;;;;;;;;;;;;;;21.55;24.84;99065.09;1719370;83;20128;-78
2022/05/17 11:42:28;;;;;;;;;;;;;;;21.11;25.83;99061.31;1686437;84;20121;-80
2022/05/17 11:44:57;;;;;;;;;;;;;;;20.87;26.51;99076.82;1719567;83;20200;-73
2022/05/17 11:47:29;;;;;;;;;;;;;;;20.88;26.59;99064.47;1668240;85;21186;-74
2022/05/17 11:50:20;;;;;;;;;;;;;;;21.10;27.43;99056.92;1719417;83;20448;-72
2022/05/17 11:52:48;;;;;;;;;;;;;;;21.25;27.01;99046.59;1687117;84;20125;-74
2022/05/17 11:55:23;;;;;;;;;;;;;;;21.31;26.62;99052.77;1721038;82;20167;-75
2022/05/17 11:57:53;;;;;;;;;;;;;;;21.15;26.72;99031.41;1700472;83;20121;-78
2022/05/17 12:00:29;;;;;;;;;;;;;;;21.27;26.46;99026.85;1714759;82;21215;-73
2022/05/17 12:02:58;;;;;;;;;;;;;;;21.54;26.59;99039.76;1733963;82;20153;-83
2022/05/17 12:05:43;;;;;;;;;;;;;;;21.90;25.11;99035.50;1734287;83;20145;-76
2022/05/17 12:08:30;;;;;;;;;;;;;;;21.90;25.86;99034.09;1738722;82;20094;-73
2022/05/17 12:11:04;;;;;;;;;;;;;;;21.77;25.81;99028.14;1748107;82;20167;-75
2022/05/17 12:13:32;;;;;;;;;;;;;;;21.67;25.16;99034.55;1748008;82;21276;-74
2022/05/17 12:15:59;;;;;;;;;;;;;;;21.52;25.65;99026.80;1748002;82;20148;-73
2022/05/17 12:18:33;;;;;;;;;;;;;;;21.60;26.28;99015.81;1747897;82;20442;-75
2022/05/17 12:21:15;;;;;;;;;;;;;;;21.56;26.21;99019.20;1747966;80;20103;-75
2022/05/17 12:23:54;;;;;;;;;;;;;;;21.52;26.64;99004.45;1748271;82;20144;-84
2022/05/17 12:26:58;;;;;;;;;;;;;;;21.37;25.94;99008.50;1691645;82;21115;-76
2022/05/17 12:32:10;;;;;;;;;;;;;;;20.99;26.79;99001.70;1735640;82;20083;-77
2022/05/17 12:34:39;;;;;;;;;;;;;;;20.79;26.13;98999.12;1697159;83;20085;-71
2022/05/17 12:37:12;;;;;;;;;;;;;;;20.69;26.59;98991.75;1728891;82;20174;-71
2022/05/17 12:45:16;;;;;;;;;;;;;;;20.72;26.70;98977.61;1746448;82;20115;-79
2022/05/17 12:47:50;;;;;;;;;;;;;;;21.03;26.41;98989.95;1746604;82;20095;-80
2022/05/17 12:50:19;;;;;;;;;;;;;;;21.38;26.85;98992.71;1746460;82;20445;-85
2022/05/17 12:52:52;;;;;;;;;;;;;;;21.77;25.63;98991.03;1746616;81;21150;-89
2022/05/17 12:55:26;;;;;;;;;;;;;;;22.08;26.07;98981.73;1745631;82;20123;-87
2022/05/17 12:57:52;;;;;;;;;;;;;;;22.22;24.23;98982.27;1745567;82;20087;-78
2022/05/17 13:00:32;;;;;;;;;;;;;;;21.93;23.23;98980.99;1737693;82;20144;-71
2022/05/17 13:03:04;;;;;;;;;;;;;;;21.45;25.60;98982.73;1735899;82;20470;-76
2022/05/17 13:05:48;;;;;;;;;;;;;;;21.34;24.40;98971.01;1710899;83;21153;-76
2022/05/17 13:08:29;;;;;;;;;;;;;;;21.48;25.14;98970.16;1716863;83;20085;-78
2022/05/17 13:11:03;;;;;;;;;;;;;;;21.60;24.53;98972.52;1717040;83;20097;-74
2022/05/17 13:13:34;;;;;;;;;;;;;;;21.51;24.24;98966.56;1697408;83;20093;-73
2022/05/17 13:16:16;;;;;;;;;;;;;;;21.50;24.37;98962.77;1718187;83;20162;-73
2022/05/17 13:18:47;;;;;;;;;;;;;;;21.86;24.49;98960.06;1722729;82;21478;-76
2022/05/17 13:21:24;;;;;;;;;;;;;;;22.42;22.95;98964.37;1728829;81;20416;-74
2022/05/17 13:24:03;;;;;;;;;;;;;;;22.77;23.25;98963.31;1705368;83;20121;-77
2022/05/17 13:26:30;;;;;;;;;;;;;;;22.90;23.17;98951.24;1717126;83;20149;-68
2022/05/17 13:29:13;;;;;;;;;;;;;;;23.01;22.27;98943.55;1696760;83;20161;-69
2022/05/17 13:31:45;;;;;;;;;;;;;;;23.00;22.51;98951.75;1689789;83;21493;-72
2022/05/17 13:34:13;;;;;;;;;;;;;;;23.08;23.15;98959.48;1723017;83;20159;-76
2022/05/17 13:36:41;;;;;;;;;;;;;;;23.21;22.09;98946.53;1721393;82;20128;-75
2022/05/17 13:39:26;;;;;;;;;;;;;;;23.45;21.78;98936.29;1752843;82;20333;-68